sensor_id;sensor_type;location;lat;lon;timestamp;pressure;altitude;pressure_sealevel;temperature;humidity
28927;BME280;16038;47.692;9.400;2023-05-11T00:01:32;96471.28;;;10.95;100.00
28927;BME280;16038;47.692;9.400;2023-05-11T00:03:58;96467.09;;;11.08;100.00
28927;BME280;16038;47.692;9.400;2023-05-11T00:06:23;96461.94;;;11.03;100.00
28927;BME280;16038;47.692;9.400;2023-05-11T00:08:48;96470.09;;;10.96;100.00
28927;BME280;16038;47.692;9.400;2023-05-11T00:11:14;96463.34;;;10.86;100.00
28927;BME280;16038;47.692;9.400;2023-05-11T00:13:39;96461.41;;;10.90;100.00
28927;BME280;16038;47.692;9.400;2023-05-11T00:16:05;96462.75;;;10.70;100.00
28927;BME280;16038;47.692;9.400;2023-05-11T00:18:30;96459.66;;;10.71;100.00
28927;BME280;16038;47.692;9.400;2023-05-11T00:20:55;96455.19;;;10.94;100.00
28927;BME280;16038;47.692;9.400;2023-05-11T00:23:21;96456.75;;;10.95;100.00
28927;BME280;16038;47.692;9.400;2023-05-11T00:25:46;96451.41;;;11.05;100.00
28927;BME280;16038;47.692;9.400;2023-05-11T00:28:11;96449.94;;;11.15;100.00
28927;BME280;16038;47.692;9.400;2023-05-11T00:30:38;96453.06;;;11.14;100.00
28927;BME280;16038;47.692;9.400;2023-05-11T00:33:03;96448.25;;;11.03;100.00
28927;BME280;16038;47.692;9.400;2023-05-11T00:35:29;96442.47;;;11.12;100.00
28927;BME280;16038;47.692;9.400;2023-05-11T00:37:55;96442.44;;;11.08;100.00
28927;BME280;16038;47.692;9.400;2023-05-11T00:40:21;96438.16;;;11.11;100.00
28927;BME280;16038;47.692;9.400;2023-05-11T00:42:46;96441.53;;;10.97;100.00
28927;BME280;16038;47.692;9.400;2023-05-11T00:45:11;96446.16;;;10.89;100.00
28927;BME280;16038;47.692;9.400;2023-05-11T00:47:37;96443.06;;;10.95;100.00
28927;BME280;16038;47.692;9.400;2023-05-11T00:50:02;96437.91;;;10.86;100.00
28927;BME280;16038;47.692;9.400;2023-05-11T00:52:28;96446.16;;;10.89;100.00
28927;BME280;16038;47.692;9.400;2023-05-11T00:54:53;96446.88;;;10.83;100.00
28927;BME280;16038;47.692;9.400;2023-05-11T00:57:19;96441.06;;;10.88;100.00
28927;BME280;16038;47.692;9.400;2023-05-11T00:59:45;96441.38;;;10.83;100.00
28927;BME280;16038;47.692;9.400;2023-05-11T01:02:11;96449.56;;;10.79;100.00
28927;BME280;16038;47.692;9.400;2023-05-11T01:04:36;96433.13;;;10.79;100.00
28927;BME280;16038;47.692;9.400;2023-05-11T01:11:59;96444.16;;;10.86;100.00
28927;BME280;16038;47.692;9.400;2023-05-11T01:14:38;96446.78;;;10.76;100.00
28927;BME280;16038;47.692;9.400;2023-05-11T01:17:08;96450.22;;;10.69;100.00
28927;BME280;16038;47.692;9.400;2023-05-11T01:19:40;96450.47;;;10.57;100.00
28927;BME280;16038;47.692;9.400;2023-05-11T01:32:21;96452.66;;;10.78;100.00
28927;BME280;16038;47.692;9.400;2023-05-11T01:34:47;96453.50;;;10.82;100.00
28927;BME280;16038;47.692;9.400;2023-05-11T01:37:20;96456.19;;;10.78;100.00
28927;BME280;16038;47.692;9.400;2023-05-11T01:39:53;96441.50;;;10.60;100.00
28927;BME280;16038;47.692;9.400;2023-05-11T01:42:20;96443.41;;;10.56;100.00
28927;BME280;16038;47.692;9.400;2023-05-11T01:44:46;96446.84;;;10.49;100.00
28927;BME280;16038;47.692;9.400;2023-05-11T01:47:14;96442.59;;;10.51;100.00
28927;BME280;16038;47.692;9.400;2023-05-11T01:49:40;96446.06;;;10.48;100.00
28927;BME280;16038;47.692;9.400;2023-05-11T01:52:08;96446.34;;;10.40;100.00
28927;BME280;16038;47.692;9.400;2023-05-11T01:54:35;96446.34;;;10.40;100.00
28927;BME280;16038;47.692;9.400;2023-05-11T01:57:01;96445.25;;;10.44;100.00
28927;BME280;16038;47.692;9.400;2023-05-11T01:59:27;96449.50;;;10.42;100.00
28927;BME280;16038;47.692;9.400;2023-05-11T02:01:52;96445.53;;;10.36;100.00
28927;BME280;16038;47.692;9.400;2023-05-11T02:04:18;96448.50;;;10.27;100.00
28927;BME280;16038;47.692;9.400;2023-05-11T02:06:44;96445.56;;;10.12;100.00
28927;BME280;16038;47.692;9.400;2023-05-11T02:09:11;96436.63;;;10.16;100.00
28927;BME280;16038;47.692;9.400;2023-05-11T02:11:37;96444.16;;;10.26;100.00
28927;BME280;16038;47.692;9.400;2023-05-11T02:14:04;96450.19;;;10.35;100.00
28927;BME280;16038;47.692;9.400;2023-05-11T02:16:30;96447.03;;;10.33;100.00
28927;BME280;16038;47.692;9.400;2023-05-11T02:18:56;96451.28;;;10.30;100.00
28927;BME280;16038;47.692;9.400;2023-05-11T02:21:22;96444.72;;;10.35;100.00
28927;BME280;16038;47.692;9.400;2023-05-11T02:23:49;96442.75;;;10.32;100.00
28927;BME280;16038;47.692;9.400;2023-05-11T02:26:15;96437.59;;;10.30;100.00
28927;BME280;16038;47.692;9.400;2023-05-11T02:28:40;96441.81;;;10.24;100.00
28927;BME280;16038;47.692;9.400;2023-05-11T02:31:08;96439.88;;;10.25;100.00
28927;BME280;16038;47.692;9.400;2023-05-11T02:33:35;96440.66;;;10.25;100.00
28927;BME280;16038;47.692;9.400;2023-05-11T02:36:03;96443.94;;;10.35;100.00
28927;BME280;16038;47.692;9.400;2023-05-11T02:38:33;96445.16;;;10.37;100.00
28927;BME280;16038;47.692;9.400;2023-05-11T02:41:00;96440.19;;;10.46;100.00
28927;BME280;16038;47.692;9.400;2023-05-11T02:43:28;96439.09;;;10.55;100.00
28927;BME280;16038;47.692;9.400;2023-05-11T02:45:57;96439.13;;;10.58;100.00
28927;BME280;16038;47.692;9.400;2023-05-11T02:48:26;96440.78;;;10.63;100.00
28927;BME280;16038;47.692;9.400;2023-05-11T02:50:53;96437.94;;;10.56;100.00
28927;BME280;16038;47.692;9.400;2023-05-11T02:53:19;96438.81;;;10.33;100.00
28927;BME280;16038;47.692;9.400;2023-05-11T02:55:45;96430.81;;;10.21;100.00
28927;BME280;16038;47.692;9.400;2023-05-11T02:58:11;96436.22;;;10.17;100.00
28927;BME280;16038;47.692;9.400;2023-05-11T03:00:37;96432.84;;;10.27;100.00
28927;BME280;16038;47.692;9.400;2023-05-11T03:03:02;96426.22;;;10.28;100.00
28927;BME280;16038;47.692;9.400;2023-05-11T03:05:28;96421.44;;;10.22;100.00
28927;BME280;16038;47.692;9.400;2023-05-11T03:07:53;96426.66;;;10.30;100.00
28927;BME280;16038;47.692;9.400;2023-05-11T03:10:21;96423.81;;;10.23;100.00
28927;BME280;16038;47.692;9.400;2023-05-11T03:12:47;96429.38;;;10.30;100.00
28927;BME280;16038;47.692;9.400;2023-05-11T03:15:12;96429.13;;;10.39;100.00
28927;BME280;16038;47.692;9.400;2023-05-11T03:17:38;96429.13;;;10.39;100.00
28927;BME280;16038;47.692;9.400;2023-05-11T03:20:05;96427.22;;;10.43;100.00
28927;BME280;16038;47.692;9.400;2023-05-11T03:22:31;96427.19;;;10.40;100.00
28927;BME280;16038;47.692;9.400;2023-05-11T03:24:57;96429.56;;;10.41;100.00
28927;BME280;16038;47.692;9.400;2023-05-11T03:27:22;96421.72;;;10.40;100.00
28927;BME280;16038;47.692;9.400;2023-05-11T03:29:48;96427.59;;;10.42;100.00
28927;BME280;16038;47.692;9.400;2023-05-11T03:32:14;96426.13;;;10.48;100.00
28927;BME280;16038;47.692;9.400;2023-05-11T03:34:39;96425.31;;;10.47;100.00
28927;BME280;16038;47.692;9.400;2023-05-11T03:37:05;96425.69;;;10.46;100.00
28927;BME280;16038;47.692;9.400;2023-05-11T03:39:31;96429.91;;;10.40;100.00
28927;BME280;16038;47.692;9.400;2023-05-11T03:41:57;96425.59;;;10.39;100.00
28927;BME280;16038;47.692;9.400;2023-05-11T03:44:23;96424.78;;;10.35;100.00
28927;BME280;16038;47.692;9.400;2023-05-11T03:46:49;96426.22;;;10.28;100.00
28927;BME280;16038;47.692;9.400;2023-05-11T03:49:17;96423.56;;;10.32;100.00
28927;BME280;16038;47.692;9.400;2023-05-11T03:51:42;96418.81;;;10.29;100.00
28927;BME280;16038;47.692;9.400;2023-05-11T03:54:08;96417.28;;;10.31;100.00
28927;BME280;16038;47.692;9.400;2023-05-11T03:56:34;96413.41;;;10.32;100.00
28927;BME280;16038;47.692;9.400;2023-05-11T03:59:00;96422.03;;;10.35;100.00
28927;BME280;16038;47.692;9.400;2023-05-11T04:01:26;96417.88;;;10.18;100.00
28927;BME280;16038;47.692;9.400;2023-05-11T04:03:51;96415.19;;;10.21;100.00
28927;BME280;16038;47.692;9.400;2023-05-11T04:06:17;96412.88;;;10.23;100.00
28927;BME280;16038;47.692;9.400;2023-05-11T04:08:43;96407.03;;;10.25;100.00
28927;BME280;16038;47.692;9.400;2023-05-11T04:11:08;96410.53;;;10.25;100.00
28927;BME280;16038;47.692;9.400;2023-05-11T04:13:34;96416.06;;;10.29;100.00
28927;BME280;16038;47.692;9.400;2023-05-11T04:15:59;96420.03;;;10.31;100.00
28927;BME280;16038;47.692;9.400;2023-05-11T04:18:24;96410.19;;;10.27;100.00
28927;BME280;16038;47.692;9.400;2023-05-11T04:20:50;96406.63;;;10.23;100.00
28927;BME280;16038;47.692;9.400;2023-05-11T04:23:15;96409.34;;;10.23;100.00
28927;BME280;16038;47.692;9.400;2023-05-11T04:25:40;96409.34;;;10.23;100.00
28927;BME280;16038;47.692;9.400;2023-05-11T04:28:06;96409.00;;;10.28;100.00
28927;BME280;16038;47.692;9.400;2023-05-11T04:30:31;96403.88;;;10.23;100.00
28927;BME280;16038;47.692;9.400;2023-05-11T04:32:56;96409.47;;;10.03;100.00
28927;BME280;16038;47.692;9.400;2023-05-11T04:35:22;96410.06;;;9.89;100.00
28927;BME280;16038;47.692;9.400;2023-05-11T04:37:48;96402.84;;;9.77;100.00
28927;BME280;16038;47.692;9.400;2023-05-11T04:40:14;96407.69;;;9.88;100.00
28927;BME280;16038;47.692;9.400;2023-05-11T04:42:39;96411.03;;;10.04;100.00
28927;BME280;16038;47.692;9.400;2023-05-11T04:45:04;96408.50;;;10.19;100.00
28927;BME280;16038;47.692;9.400;2023-05-11T04:47:30;96406.88;;;10.14;100.00
28927;BME280;16038;47.692;9.400;2023-05-11T04:49:55;96413.97;;;10.19;100.00
28927;BME280;16038;47.692;9.400;2023-05-11T04:52:20;96410.44;;;10.18;100.00
28927;BME280;16038;47.692;9.400;2023-05-11T04:54:46;96405.59;;;10.35;100.00
28927;BME280;16038;47.692;9.400;2023-05-11T04:57:11;96411.91;;;10.39;100.00
28927;BME280;16038;47.692;9.400;2023-05-11T04:59:36;96418.94;;;10.36;100.00
28927;BME280;16038;47.692;9.400;2023-05-11T05:02:02;96413.50;;;10.40;100.00
28927;BME280;16038;47.692;9.400;2023-05-11T05:04:27;96419.44;;;10.45;100.00
28927;BME280;16038;47.692;9.400;2023-05-11T05:06:52;96409.69;;;10.48;100.00
28927;BME280;16038;47.692;9.400;2023-05-11T05:09:17;96411.66;;;10.51;100.00
28927;BME280;16038;47.692;9.400;2023-05-11T05:11:43;96419.50;;;10.52;100.00
28927;BME280;16038;47.692;9.400;2023-05-11T05:14:08;96416.06;;;10.59;100.00
28927;BME280;16038;47.692;9.400;2023-05-11T05:16:33;96420.09;;;10.69;100.00
28927;BME280;16038;47.692;9.400;2023-05-11T05:18:59;96424.75;;;10.65;100.00
28927;BME280;16038;47.692;9.400;2023-05-11T05:21:24;96421.22;;;10.64;100.00
28927;BME280;16038;47.692;9.400;2023-05-11T05:23:49;96419.50;;;10.52;100.00
28927;BME280;16038;47.692;9.400;2023-05-11T05:26:15;96417.22;;;10.58;100.00
28927;BME280;16038;47.692;9.400;2023-05-11T05:28:40;96418.06;;;10.62;100.00
28927;BME280;16038;47.692;9.400;2023-05-11T05:31:05;96425.84;;;10.60;100.00
28927;BME280;16038;47.692;9.400;2023-05-11T05:33:30;96421.94;;;10.58;100.00
28927;BME280;16038;47.692;9.400;2023-05-11T05:35:56;96426.25;;;10.62;100.00
28927;BME280;16038;47.692;9.400;2023-05-11T05:38:21;96424.88;;;10.76;100.00
28927;BME280;16038;47.692;9.400;2023-05-11T05:40:46;96415.53;;;10.84;100.00
28927;BME280;16038;47.692;9.400;2023-05-11T05:43:12;96424.69;;;10.95;100.00
28927;BME280;16038;47.692;9.400;2023-05-11T05:45:37;96427.09;;;11.00;100.00
28927;BME280;16038;47.692;9.400;2023-05-11T05:48:02;96424.00;;;11.05;100.00
28927;BME280;16038;47.692;9.400;2023-05-11T05:50:30;96423.19;;;11.01;100.00
28927;BME280;16038;47.692;9.400;2023-05-11T05:52:55;96432.69;;;11.11;100.00
28927;BME280;16038;47.692;9.400;2023-05-11T05:55:20;96428.47;;;11.21;100.00
28927;BME280;16038;47.692;9.400;2023-05-11T05:57:46;96430.19;;;11.36;100.00
28927;BME280;16038;47.692;9.400;2023-05-11T06:00:12;96424.69;;;11.36;100.00
28927;BME280;16038;47.692;9.400;2023-05-11T06:02:37;96431.78;;;11.41;100.00
28927;BME280;16038;47.692;9.400;2023-05-11T06:05:02;96429.28;;;11.73;100.00
28927;BME280;16038;47.692;9.400;2023-05-11T06:07:28;96433.03;;;12.02;100.00
28927;BME280;16038;47.692;9.400;2023-05-11T06:09:53;96427.13;;;11.97;100.00
28927;BME280;16038;47.692;9.400;2023-05-11T06:12:18;96432.63;;;12.00;100.00
28927;BME280;16038;47.692;9.400;2023-05-11T06:14:44;96429.00;;;11.85;100.00
28927;BME280;16038;47.692;9.400;2023-05-11T06:17:09;96431.44;;;11.94;100.00
28927;BME280;16038;47.692;9.400;2023-05-11T06:19:34;96433.47;;;12.08;100.00
28927;BME280;16038;47.692;9.400;2023-05-11T06:22:00;96438.66;;;12.24;100.00
28927;BME280;16038;47.692;9.400;2023-05-11T06:24:25;96434.34;;;12.19;100.00
28927;BME280;16038;47.692;9.400;2023-05-11T06:26:50;96428.09;;;12.30;100.00
28927;BME280;16038;47.692;9.400;2023-05-11T06:29:16;96427.31;;;12.29;100.00
28927;BME280;16038;47.692;9.400;2023-05-11T06:31:41;96433.41;;;12.01;100.00
28927;BME280;16038;47.692;9.400;2023-05-11T06:34:06;96429.47;;;11.95;100.00
28927;BME280;16038;47.692;9.400;2023-05-11T06:36:33;96432.25;;;11.98;100.00
28927;BME280;16038;47.692;9.400;2023-05-11T06:38:58;96433.28;;;11.83;100.00
28927;BME280;16038;47.692;9.400;2023-05-11T06:41:24;96425.47;;;11.85;100.00
28927;BME280;16038;47.692;9.400;2023-05-11T06:43:49;96430.25;;;11.95;100.00
28927;BME280;16038;47.692;9.400;2023-05-11T06:46:15;96430.56;;;11.83;100.00
28927;BME280;16038;47.692;9.400;2023-05-11T06:48:41;96426.97;;;11.79;100.00
28927;BME280;16038;47.692;9.400;2023-05-11T06:51:10;96427.81;;;11.86;100.00
28927;BME280;16038;47.692;9.400;2023-05-11T06:53:36;96417.25;;;11.89;100.00
28927;BME280;16038;47.692;9.400;2023-05-11T06:56:01;96426.94;;;11.75;100.00
28927;BME280;16038;47.692;9.400;2023-05-11T06:58:27;96427.22;;;11.59;100.00
28927;BME280;16038;47.692;9.400;2023-05-11T07:00:52;96420.56;;;11.60;100.00
28927;BME280;16038;47.692;9.400;2023-05-11T07:03:18;96424.97;;;11.69;100.00
28927;BME280;16038;47.692;9.400;2023-05-11T07:05:43;96426.59;;;11.80;100.00
28927;BME280;16038;47.692;9.400;2023-05-11T07:08:09;96430.25;;;11.95;100.00
28927;BME280;16038;47.692;9.400;2023-05-11T07:10:34;96427.50;;;11.95;100.00
28927;BME280;16038;47.692;9.400;2023-05-11T07:13:00;96424.75;;;11.95;100.00
28927;BME280;16038;47.692;9.400;2023-05-11T07:15:25;96425.63;;;12.03;100.00
28927;BME280;16038;47.692;9.400;2023-05-11T07:17:50;96425.19;;;12.01;100.00
28927;BME280;16038;47.692;9.400;2023-05-11T07:20:16;96428.75;;;12.01;100.00
28927;BME280;16038;47.692;9.400;2023-05-11T07:22:41;96428.75;;;12.01;100.00
28927;BME280;16038;47.692;9.400;2023-05-11T07:25:07;96433.84;;;12.03;100.00
28927;BME280;16038;47.692;9.400;2023-05-11T07:27:33;96430.72;;;12.08;100.00
28927;BME280;16038;47.692;9.400;2023-05-11T07:29:59;96426.41;;;12.07;100.00
28927;BME280;16038;47.692;9.400;2023-05-11T07:32:24;96430.28;;;12.02;100.00
28927;BME280;16038;47.692;9.400;2023-05-11T07:34:49;96431.09;;;11.99;100.00
28927;BME280;16038;47.692;9.400;2023-05-11T07:37:14;96425.97;;;11.98;100.00
28927;BME280;16038;47.692;9.400;2023-05-11T07:39:40;96429.13;;;12.00;100.00
28927;BME280;16038;47.692;9.400;2023-05-11T07:42:05;96426.66;;;11.88;100.00
28927;BME280;16038;47.692;9.400;2023-05-11T07:44:30;96420.38;;;11.87;100.00
28927;BME280;16038;47.692;9.400;2023-05-11T07:46:56;96421.53;;;11.86;100.00
28927;BME280;16038;47.692;9.400;2023-05-11T07:49:22;96420.53;;;12.05;100.00
28927;BME280;16038;47.692;9.400;2023-05-11T07:51:48;96421.81;;;12.29;100.00
28927;BME280;16038;47.692;9.400;2023-05-11T07:54:13;96423.09;;;12.46;100.00
28927;BME280;16038;47.692;9.400;2023-05-11T07:56:38;96421.06;;;12.32;100.00
28927;BME280;16038;47.692;9.400;2023-05-11T07:59:04;96417.69;;;12.71;100.00
28927;BME280;16038;47.692;9.400;2023-05-11T08:01:34;96413.44;;;12.88;100.00
28927;BME280;16038;47.692;9.400;2023-05-11T08:03:59;96416.25;;;13.24;100.00
28927;BME280;16038;47.692;9.400;2023-05-11T08:06:25;96415.91;;;13.58;100.00
28927;BME280;16038;47.692;9.400;2023-05-11T08:08:50;96416.66;;;13.87;100.00
28927;BME280;16038;47.692;9.400;2023-05-11T08:11:16;96416.22;;;14.25;100.00
28927;BME280;16038;47.692;9.400;2023-05-11T08:13:41;96414.16;;;14.61;100.00
28927;BME280;16038;47.692;9.400;2023-05-11T08:16:06;96415.56;;;14.95;100.00
28927;BME280;16038;47.692;9.400;2023-05-11T08:18:32;96409.25;;;14.98;100.00
28927;BME280;16038;47.692;9.400;2023-05-11T08:20:57;96406.63;;;15.36;98.45
28927;BME280;16038;47.692;9.400;2023-05-11T08:23:22;96412.69;;;15.16;97.67
28927;BME280;16038;47.692;9.400;2023-05-11T08:25:51;96410.91;;;15.47;92.94
28927;BME280;16038;47.692;9.400;2023-05-11T08:28:17;96411.31;;;14.79;98.80
28927;BME280;16038;47.692;9.400;2023-05-11T08:30:43;96413.63;;;14.91;99.81
28927;BME280;16038;47.692;9.400;2023-05-11T08:33:08;96414.47;;;15.44;94.73
28927;BME280;16038;47.692;9.400;2023-05-11T08:35:33;96410.66;;;15.27;95.59
28927;BME280;16038;47.692;9.400;2023-05-11T08:37:59;96403.00;;;15.98;90.96
28927;BME280;16038;47.692;9.400;2023-05-11T08:40:25;96404.91;;;16.05;86.53
28927;BME280;16038;47.692;9.400;2023-05-11T08:42:51;96400.84;;;15.68;90.87
28927;BME280;16038;47.692;9.400;2023-05-11T08:45:19;96397.09;;;16.34;84.73
28927;BME280;16038;47.692;9.400;2023-05-11T08:47:44;96401.31;;;16.46;84.00
28927;BME280;16038;47.692;9.400;2023-05-11T08:50:11;96409.53;;;17.15;76.00
28927;BME280;16038;47.692;9.400;2023-05-11T08:52:36;96400.47;;;17.42;73.31
28927;BME280;16038;47.692;9.400;2023-05-11T08:55:02;96408.59;;;16.98;75.22
28927;BME280;16038;47.692;9.400;2023-05-11T08:57:28;96406.41;;;16.82;71.91
28927;BME280;16038;47.692;9.400;2023-05-11T08:59:55;96397.06;;;17.81;72.19
28927;BME280;16038;47.692;9.400;2023-05-11T09:02:20;96392.19;;;18.32;66.29
28927;BME280;16038;47.692;9.400;2023-05-11T09:04:46;96391.84;;;18.50;64.95
28927;BME280;16038;47.692;9.400;2023-05-11T09:07:12;96399.25;;;17.93;65.86
28927;BME280;16038;47.692;9.400;2023-05-11T09:09:39;96390.44;;;18.42;63.51
28927;BME280;16038;47.692;9.400;2023-05-11T09:12:06;96387.66;;;18.82;62.06
28927;BME280;16038;47.692;9.400;2023-05-11T09:14:31;96389.34;;;19.49;57.05
28927;BME280;16038;47.692;9.400;2023-05-11T09:16:57;96392.97;;;19.46;59.40
28927;BME280;16038;47.692;9.400;2023-05-11T09:19:22;96391.69;;;19.34;53.67
28927;BME280;16038;47.692;9.400;2023-05-11T09:21:48;96384.03;;;18.85;55.80
28927;BME280;16038;47.692;9.400;2023-05-11T09:24:13;96380.59;;;18.78;60.12
28927;BME280;16038;47.692;9.400;2023-05-11T09:26:38;96383.44;;;17.67;61.98
28927;BME280;16038;47.692;9.400;2023-05-11T09:29:03;96386.84;;;18.22;61.39
28927;BME280;16038;47.692;9.400;2023-05-11T09:31:44;96383.44;;;18.34;59.50
28927;BME280;16038;47.692;9.400;2023-05-11T09:36:42;96376.69;;;18.15;59.79
28927;BME280;16038;47.692;9.400;2023-05-11T09:39:07;96373.13;;;18.14;60.64
28927;BME280;16038;47.692;9.400;2023-05-11T09:41:33;96379.81;;;18.17;61.94
28927;BME280;16038;47.692;9.400;2023-05-11T09:44:05;96382.03;;;17.31;61.35
28927;BME280;16038;47.692;9.400;2023-05-11T09:46:32;96381.34;;;17.24;62.44
28927;BME280;16038;47.692;9.400;2023-05-11T09:48:58;96377.00;;;17.23;60.03
28927;BME280;16038;47.692;9.400;2023-05-11T09:51:30;96379.31;;;16.70;62.31
28927;BME280;16038;47.692;9.400;2023-05-11T09:53:56;96381.72;;;16.33;62.57
28927;BME280;16038;47.692;9.400;2023-05-11T09:56:22;96370.88;;;15.74;71.26
28927;BME280;16038;47.692;9.400;2023-05-11T09:58:49;96357.94;;;15.11;76.75
28927;BME280;16038;47.692;9.400;2023-05-11T10:01:15;96370.97;;;14.15;83.87
28927;BME280;16038;47.692;9.400;2023-05-11T10:03:44;96363.19;;;13.95;86.97
28927;BME280;16038;47.692;9.400;2023-05-11T10:06:09;96361.22;;;13.85;86.62
28927;BME280;16038;47.692;9.400;2023-05-11T10:08:35;96358.84;;;13.98;91.35
28927;BME280;16038;47.692;9.400;2023-05-11T10:11:00;96360.44;;;13.92;93.91
28927;BME280;16038;47.692;9.400;2023-05-11T10:13:26;96359.97;;;14.11;90.46
28927;BME280;16038;47.692;9.400;2023-05-11T10:15:52;96353.69;;;14.07;93.08
28927;BME280;16038;47.692;9.400;2023-05-11T10:18:18;96358.41;;;14.10;93.84
28927;BME280;16038;47.692;9.400;2023-05-11T10:20:44;96361.19;;;14.03;93.41
28927;BME280;16038;47.692;9.400;2023-05-11T10:23:10;96354.56;;;13.61;100.00
28927;BME280;16038;47.692;9.400;2023-05-11T10:25:35;96358.47;;;13.85;100.00
28927;BME280;16038;47.692;9.400;2023-05-11T10:28:01;96351.78;;;13.75;100.00
28927;BME280;16038;47.692;9.400;2023-05-11T10:30:26;96351.03;;;13.64;100.00
28927;BME280;16038;47.692;9.400;2023-05-11T10:32:51;96345.16;;;13.55;100.00
28927;BME280;16038;47.692;9.400;2023-05-11T10:35:19;96342.75;;;13.75;100.00
28927;BME280;16038;47.692;9.400;2023-05-11T10:37:45;96345.88;;;13.84;100.00
28927;BME280;16038;47.692;9.400;2023-05-11T10:40:10;96352.19;;;13.92;100.00
28927;BME280;16038;47.692;9.400;2023-05-11T10:50:27;96339.72;;;14.61;100.00
28927;BME280;16038;47.692;9.400;2023-05-11T10:58:32;96337.56;;;14.94;93.04
28927;BME280;16038;47.692;9.400;2023-05-11T11:03:37;96335.88;;;14.44;97.44
28927;BME280;16038;47.692;9.400;2023-05-11T11:06:03;96334.31;;;14.32;100.00
28927;BME280;16038;47.692;9.400;2023-05-11T11:08:28;96335.94;;;14.26;99.52
28927;BME280;16038;47.692;9.400;2023-05-11T11:11:29;96335.94;;;14.26;100.00
28927;BME280;16038;47.692;9.400;2023-05-11T11:13:55;96337.09;;;14.32;100.00
28927;BME280;16038;47.692;9.400;2023-05-11T11:16:21;96341.56;;;13.94;100.00
28927;BME280;16038;47.692;9.400;2023-05-11T11:18:48;96336.03;;;13.94;100.00
28927;BME280;16038;47.692;9.400;2023-05-11T11:21:14;96335.69;;;13.85;100.00
28927;BME280;16038;47.692;9.400;2023-05-11T11:23:59;96336.09;;;13.76;100.00
28927;BME280;16038;47.692;9.400;2023-05-11T11:26:46;96325.44;;;13.92;100.00
28927;BME280;16038;47.692;9.400;2023-05-11T11:29:12;96331.00;;;13.60;100.00
28927;BME280;16038;47.692;9.400;2023-05-11T11:31:40;96329.03;;;13.25;100.00
28927;BME280;16038;47.692;9.400;2023-05-11T11:42:05;96327.84;;;13.11;100.00
28927;BME280;16038;47.692;9.400;2023-05-11T11:44:34;96324.72;;;13.13;100.00
28927;BME280;16038;47.692;9.400;2023-05-11T11:49:38;96331.03;;;13.31;100.00
28927;BME280;16038;47.692;9.400;2023-05-11T11:52:04;96331.81;;;13.32;100.00
28927;BME280;16038;47.692;9.400;2023-05-11T11:54:37;96331.03;;;13.35;97.21
28927;BME280;16038;47.692;9.400;2023-05-11T11:57:03;96340.44;;;13.34;96.13
28927;BME280;16038;47.692;9.400;2023-05-11T11:59:28;96343.97;;;13.16;96.36
28927;BME280;16038;47.692;9.400;2023-05-11T12:01:54;96343.53;;;12.75;100.00
28927;BME280;16038;47.692;9.400;2023-05-11T12:04:31;96347.03;;;12.72;100.00
28927;BME280;16038;47.692;9.400;2023-05-11T12:07:00;96352.56;;;12.82;100.00
28927;BME280;16038;47.692;9.400;2023-05-11T12:09:27;96361.63;;;13.15;96.89
28927;BME280;16038;47.692;9.400;2023-05-11T12:11:52;96352.22;;;13.27;97.61
28927;BME280;16038;47.692;9.400;2023-05-11T12:14:19;96354.19;;;13.41;100.00
28927;BME280;16038;47.692;9.400;2023-05-11T12:17:04;96361.28;;;13.53;100.00
28927;BME280;16038;47.692;9.400;2023-05-11T12:19:32;96353.25;;;12.47;100.00
28927;BME280;16038;47.692;9.400;2023-05-11T12:21:57;96359.06;;;12.31;100.00
28927;BME280;16038;47.692;9.400;2023-05-11T12:24:22;96359.09;;;12.38;100.00
28927;BME280;16038;47.692;9.400;2023-05-11T12:26:48;96355.19;;;12.39;100.00
28927;BME280;16038;47.692;9.400;2023-05-11T12:29:13;96348.56;;;12.66;100.00
28927;BME280;16038;47.692;9.400;2023-05-11T12:31:42;96348.25;;;12.89;100.00
28927;BME280;16038;47.692;9.400;2023-05-11T12:34:14;96345.13;;;13.05;100.00
28927;BME280;16038;47.692;9.400;2023-05-11T12:36:40;96336.50;;;13.24;100.00
28927;BME280;16038;47.692;9.400;2023-05-11T12:39:05;96346.75;;;13.31;100.00
28927;BME280;16038;47.692;9.400;2023-05-11T12:41:31;96345.56;;;13.39;100.00
28927;BME280;16038;47.692;9.400;2023-05-11T12:43:57;96333.69;;;12.77;100.00
28927;BME280;16038;47.692;9.400;2023-05-11T12:46:22;96335.47;;;12.16;100.00
28927;BME280;16038;47.692;9.400;2023-05-11T12:48:48;96338.69;;;11.62;100.00
28927;BME280;16038;47.692;9.400;2023-05-11T12:51:40;96324.00;;;11.33;100.00
28927;BME280;16038;47.692;9.400;2023-05-11T12:53:58;96323.38;;;11.02;100.00
28927;BME280;16038;47.692;9.400;2023-05-11T12:56:24;96327.63;;;11.00;100.00
28927;BME280;16038;47.692;9.400;2023-05-11T12:58:50;96319.09;;;11.08;100.00
28927;BME280;16038;47.692;9.400;2023-05-11T13:01:15;96317.06;;;10.98;100.00
28927;BME280;16038;47.692;9.400;2023-05-11T13:03:47;96322.16;;;11.52;100.00
28927;BME280;16038;47.692;9.400;2023-05-11T13:06:12;96315.91;;;10.99;100.00
28927;BME280;16038;47.692;9.400;2023-05-11T13:08:38;96313.09;;;10.92;100.00
28927;BME280;16038;47.692;9.400;2023-05-11T13:13:41;96320.38;;;11.18;100.00
28927;BME280;16038;47.692;9.400;2023-05-11T13:16:07;96314.84;;;11.74;100.00
28927;BME280;16038;47.692;9.400;2023-05-11T13:18:32;96316.63;;;12.11;100.00
28927;BME280;16038;47.692;9.400;2023-05-11T13:21:04;96313.25;;;11.69;100.00
28927;BME280;16038;47.692;9.400;2023-05-11T13:23:30;96313.50;;;10.94;100.00
28927;BME280;16038;47.692;9.400;2023-05-11T13:25:55;96314.41;;;11.09;100.00
28927;BME280;16038;47.692;9.400;2023-05-11T13:28:21;96310.28;;;10.44;100.00
28927;BME280;16038;47.692;9.400;2023-05-11T13:30:48;96311.31;;;10.69;100.00
28927;BME280;16038;47.692;9.400;2023-05-11T13:33:15;96298.84;;;11.20;100.00
28927;BME280;16038;47.692;9.400;2023-05-11T13:35:41;96313.84;;;11.37;100.00